Airfield :
LOGIN :

Register | Disclaimer

   EN    FR    IT 

 










Legend :    VFR   Marginal VFR   IFR   Intensive IFR   Very Intensive IFR
Visi :
Ceiling :
>= 8 km
>= 3000ft
5 to 8 km
1000 to 3000 ft
1500m to 5 km
500 to 1000 ft
800 to 1500m
200 to 500 ft
< 800m
< 200 ft
Symbols :   Thunderstorms  Fog  Heavy snow  Heavy precipitations  Wind > 20 kt
SIGMETs :     Misc.  Thunderstorms  Icing  Turbulence  Mountain Waves  Volcanic Ashes






- Airport Elevation : 776 ft
- IATA code : RMS


ETAR - Ramstein Air Base

CURRENT METAR :
  • 200203Z 22006KT 9999 BKN014 OVC019 05/04 A3019 RMK AO2A SLP233 FZRANO $

EXPIRED METARs :
  • 200156Z 23006KT 9999 OVC017 05/03 A3019 RMK AO2A RAE01 CIG 014 RWY08 SLP233 P0000 T00490034 FZRANO $
  • 200116Z 23005KT 9999 BKN017 BKN022 05/03 A3020 RMK AO2A RAE01 CIG 016 RWY08 SLP237 FZRANO $
  • 200101Z 23005KT 9999 SCT021 05/03 A3020 RMK AO2A RAE01 SLP237 FZRANO $
  • 200056Z 25009G15KT 9999 -RA FEW020 05/03 A3021 RMK AO2A RAB28 SLP241 P0000 T00500030 FZRANO $
  • 200043Z 23010G15KT 9999 -RA SCT020 05/03 A3021 RMK AO2A RAB28 SLP241 FZRANO $
  • 200028Z 23009KT 9999 -RA BKN020 05/03 A3021 RMK AO2A RAB28 SLP241 FZRANO $
  • 200011Z 23008KT 9999 BKN022 BKN100 05/02 A3021 RMK AO2A CIG 022V100 BKN022 V SCT SLP241 FZRANO $
  • 192356Z 23008KT 9999 FEW023 SCT060 SCT100 05/02 A3021 RMK AO2A SLP241 T00500020 10050 20037 57010 FZRANO $

TAF TAF ETAR
Valid from the 20 at 02:00 until the 21 at 08:00 UTC


200200Z 2002/2108 22010KT 9999 OVC015 620508 QNH3017INS
BECMG 2002/2003 22010KT 9000 -RA OVC012 620508 QNH3013INS
BECMG 2007/2008 22010G20KT 9999 NSW BKN016 510003 QNH3007INS
BECMG 2012/2013 23012G20KT 9999 SCT020 BKN030 510003 QNH2999INS
BECMG 2020/2021 23015G25KT 9000 -SHRA BKN020 610507 520004 QNH2999INS
TEMPO 2022/2023 25015G30KT
BECMG 2023/2024 28012G20KT 9999 NSW BKN020 510003 QNH3014INS TX09/2013Z TN04/2102Z



MET'MAP, your aeronautical weather chart ! - Copyright ORBIFLY December 2007 - Disclaimer

ORBIFLY MET'MAP TEAM :

Programming & Development : Alexandra Zaïnal
Concept & original design : Baudouin d'Aumeries
Assistance for programming : Marc-Olivier Méhu
Technical & hardware support : Manuel Goepfert

Contact : metmap@orbifly.com




SOURCES & CREDITS :

   NOAA